sensor_id;sensor_type;location;lat;lon;timestamp;pressure;altitude;pressure_sealevel;temperature;humidity
46846;BME280;33947;46.804;134.252;2022-10-16T00:01:10;101038.16;;;9.22;78.39
46846;BME280;33947;46.804;134.252;2022-10-16T00:04:15;101039.13;;;9.17;78.75
46846;BME280;33947;46.804;134.252;2022-10-16T00:07:19;101029.34;;;9.22;78.74
46846;BME280;33947;46.804;134.252;2022-10-16T00:10:24;101021.97;;;9.43;77.70
46846;BME280;33947;46.804;134.252;2022-10-16T00:13:30;101028.97;;;9.48;78.13
46846;BME280;33947;46.804;134.252;2022-10-16T00:16:35;101032.53;;;9.47;78.41
46846;BME280;33947;46.804;134.252;2022-10-16T00:19:39;101036.03;;;9.49;79.04
46846;BME280;33947;46.804;134.252;2022-10-16T00:23:03;101063.22;;;9.65;79.02
46846;BME280;33947;46.804;134.252;2022-10-16T00:26:12;101056.84;;;9.76;78.17
46846;BME280;33947;46.804;134.252;2022-10-16T00:29:17;101059.22;;;9.35;80.23
46846;BME280;33947;46.804;134.252;2022-10-16T00:32:21;101059.81;;;9.55;79.92
46846;BME280;33947;46.804;134.252;2022-10-16T00:35:26;101039.53;;;9.51;78.94
46846;BME280;33947;46.804;134.252;2022-10-16T00:38:31;101081.16;;;9.48;80.07
46846;BME280;33947;46.804;134.252;2022-10-16T00:41:36;101079.63;;;9.26;81.64
46846;BME280;33947;46.804;134.252;2022-10-16T00:44:49;101079.44;;;9.42;81.41
46846;BME280;33947;46.804;134.252;2022-10-16T00:47:55;101085.91;;;9.21;81.80
46846;BME280;33947;46.804;134.252;2022-10-16T00:51:00;101084.91;;;9.30;82.55
46846;BME280;33947;46.804;134.252;2022-10-16T00:54:17;101077.03;;;9.23;82.08
46846;BME280;33947;46.804;134.252;2022-10-16T00:57:25;101084.84;;;9.34;81.52
46846;BME280;33947;46.804;134.252;2022-10-16T01:00:29;101088.22;;;9.46;81.69
46846;BME280;33947;46.804;134.252;2022-10-16T01:03:35;101091.56;;;9.60;80.83
46846;BME280;33947;46.804;134.252;2022-10-16T01:13:35;101082.22;;;9.95;77.93
46846;BME280;33947;46.804;134.252;2022-10-16T01:17:06;101067.66;;;10.20;75.93
46846;BME280;33947;46.804;134.252;2022-10-16T01:20:24;101050.66;;;10.30;75.30
46846;BME280;33947;46.804;134.252;2022-10-16T01:27:14;101055.00;;;10.34;75.58
46846;BME280;33947;46.804;134.252;2022-10-16T01:30:27;101065.53;;;10.44;74.67
46846;BME280;33947;46.804;134.252;2022-10-16T01:33:40;101060.03;;;10.53;74.38
46846;BME280;33947;46.804;134.252;2022-10-16T01:36:54;101011.13;;;10.14;75.30
46846;BME280;33947;46.804;134.252;2022-10-16T01:40:03;101050.44;;;10.46;75.16
46846;BME280;33947;46.804;134.252;2022-10-16T01:43:17;101050.50;;;10.42;75.48
46846;BME280;33947;46.804;134.252;2022-10-16T01:46:24;101055.53;;;10.56;75.01
46846;BME280;33947;46.804;134.252;2022-10-16T01:49:34;101054.59;;;10.61;74.82
46846;BME280;33947;46.804;134.252;2022-10-16T01:52:43;101060.59;;;10.70;74.54
46846;BME280;33947;46.804;134.252;2022-10-16T01:55:49;101068.44;;;10.77;74.67
46846;BME280;33947;46.804;134.252;2022-10-16T01:59:20;101089.44;;;10.91;73.45
46846;BME280;33947;46.804;134.252;2022-10-16T02:02:28;101072.34;;;11.04;73.13
46846;BME280;33947;46.804;134.252;2022-10-16T02:05:41;101065.09;;;11.12;72.30
46846;BME280;33947;46.804;134.252;2022-10-16T02:08:48;101029.91;;;10.98;71.85
46846;BME280;33947;46.804;134.252;2022-10-16T02:11:54;101063.06;;;11.24;71.55
46846;BME280;33947;46.804;134.252;2022-10-16T02:15:01;101044.31;;;11.30;70.91
46846;BME280;33947;46.804;134.252;2022-10-16T02:18:07;101021.41;;;11.24;70.65
46846;BME280;33947;46.804;134.252;2022-10-16T02:21:40;101035.97;;;11.47;68.45
46846;BME280;33947;46.804;134.252;2022-10-16T02:28:12;101024.47;;;11.47;67.54
46846;BME280;33947;46.804;134.252;2022-10-16T02:31:27;101036.41;;;11.66;68.75
46846;BME280;33947;46.804;134.252;2022-10-16T02:34:33;101030.84;;;12.15;67.53
46846;BME280;33947;46.804;134.252;2022-10-16T02:37:39;101008.28;;;11.92;67.38
46846;BME280;33947;46.804;134.252;2022-10-16T02:40:45;101004.59;;;12.34;66.29
46846;BME280;33947;46.804;134.252;2022-10-16T02:43:49;100998.50;;;12.94;63.50
46846;BME280;33947;46.804;134.252;2022-10-16T02:46:56;100992.47;;;12.55;62.74
46846;BME280;33947;46.804;134.252;2022-10-16T02:50:00;101003.31;;;12.81;62.86
46846;BME280;33947;46.804;134.252;2022-10-16T02:53:06;100991.75;;;13.12;61.13
46846;BME280;33947;46.804;134.252;2022-10-16T02:56:10;100989.94;;;13.41;60.31
46846;BME280;33947;46.804;134.252;2022-10-16T02:59:15;100991.06;;;13.34;58.40
46846;BME280;33947;46.804;134.252;2022-10-16T03:02:20;100990.59;;;13.78;58.08
46846;BME280;33947;46.804;134.252;2022-10-16T03:05:25;100956.88;;;14.00;56.37
46846;BME280;33947;46.804;134.252;2022-10-16T03:08:29;100990.53;;;14.06;54.58
46846;BME280;33947;46.804;134.252;2022-10-16T03:11:34;100977.59;;;13.94;54.21
46846;BME280;33947;46.804;134.252;2022-10-16T03:14:38;100965.38;;;13.86;54.29
46846;BME280;33947;46.804;134.252;2022-10-16T03:17:44;100966.13;;;14.17;52.65
46846;BME280;33947;46.804;134.252;2022-10-16T03:20:48;100963.97;;;14.01;49.96
46846;BME280;33947;46.804;134.252;2022-10-16T03:23:52;100942.88;;;13.94;49.33
46846;BME280;33947;46.804;134.252;2022-10-16T03:26:57;100944.28;;;14.04;49.58
46846;BME280;33947;46.804;134.252;2022-10-16T03:30:01;100942.59;;;14.01;47.20
46846;BME280;33947;46.804;134.252;2022-10-16T03:33:06;100892.25;;;13.91;46.82
46846;BME280;33947;46.804;134.252;2022-10-16T03:36:10;100936.88;;;14.12;42.80
46846;BME280;33947;46.804;134.252;2022-10-16T03:39:15;100876.75;;;13.75;41.43
46846;BME280;33947;46.804;134.252;2022-10-16T03:42:19;100916.91;;;13.97;41.39
46846;BME280;33947;46.804;134.252;2022-10-16T03:45:24;100907.50;;;14.12;40.33
46846;BME280;33947;46.804;134.252;2022-10-16T03:48:30;100905.81;;;14.10;40.20
46846;BME280;33947;46.804;134.252;2022-10-16T03:51:36;100909.00;;;14.19;40.89
46846;BME280;33947;46.804;134.252;2022-10-16T03:54:40;100901.56;;;14.04;40.17
46846;BME280;33947;46.804;134.252;2022-10-16T03:57:45;100902.97;;;14.14;41.38
46846;BME280;33947;46.804;134.252;2022-10-16T04:00:49;100892.16;;;14.17;39.85
46846;BME280;33947;46.804;134.252;2022-10-16T04:03:54;100904.88;;;14.11;39.69
46846;BME280;33947;46.804;134.252;2022-10-16T04:06:59;100885.50;;;14.06;38.41
46846;BME280;33947;46.804;134.252;2022-10-16T04:10:04;100888.63;;;14.17;39.83
46846;BME280;33947;46.804;134.252;2022-10-16T04:13:09;100874.06;;;14.50;39.02
46846;BME280;33947;46.804;134.252;2022-10-16T04:16:13;100875.56;;;14.57;37.66
46846;BME280;33947;46.804;134.252;2022-10-16T04:19:18;100866.59;;;14.58;37.69
46846;BME280;33947;46.804;134.252;2022-10-16T04:22:23;100838.63;;;14.21;37.26
46846;BME280;33947;46.804;134.252;2022-10-16T04:25:32;100846.09;;;14.35;37.32
46846;BME280;33947;46.804;134.252;2022-10-16T04:28:37;100854.88;;;14.62;37.42
46846;BME280;33947;46.804;134.252;2022-10-16T04:31:41;100849.75;;;14.56;37.22
46846;BME280;33947;46.804;134.252;2022-10-16T04:34:46;100843.22;;;14.41;36.15
46846;BME280;33947;46.804;134.252;2022-10-16T04:37:50;100833.72;;;14.56;35.55
46846;BME280;33947;46.804;134.252;2022-10-16T04:40:56;100824.28;;;14.47;35.68
46846;BME280;33947;46.804;134.252;2022-10-16T04:44:01;100817.22;;;14.44;34.40
46846;BME280;33947;46.804;134.252;2022-10-16T04:47:05;100804.28;;;14.33;34.30
46846;BME280;33947;46.804;134.252;2022-10-16T04:50:10;100817.44;;;14.40;35.15
46846;BME280;33947;46.804;134.252;2022-10-16T04:53:14;100762.94;;;14.20;35.63
46846;BME280;33947;46.804;134.252;2022-10-16T04:56:19;100803.31;;;14.36;35.49
46846;BME280;33947;46.804;134.252;2022-10-16T04:59:24;100805.03;;;14.37;35.20
46846;BME280;33947;46.804;134.252;2022-10-16T05:02:28;100801.53;;;14.59;35.00
46846;BME280;33947;46.804;134.252;2022-10-16T05:05:34;100793.53;;;14.35;33.38
46846;BME280;33947;46.804;134.252;2022-10-16T05:08:38;100766.25;;;14.03;34.50
46846;BME280;33947;46.804;134.252;2022-10-16T05:11:42;100740.88;;;13.91;34.49
46846;BME280;33947;46.804;134.252;2022-10-16T05:14:47;100786.06;;;14.21;35.22
46846;BME280;33947;46.804;134.252;2022-10-16T05:17:53;100779.25;;;14.36;34.73
46846;BME280;33947;46.804;134.252;2022-10-16T05:21:00;100772.59;;;14.46;32.64
46846;BME280;33947;46.804;134.252;2022-10-16T05:24:05;100737.13;;;14.43;34.33
46846;BME280;33947;46.804;134.252;2022-10-16T05:27:12;100768.56;;;14.58;33.57
46846;BME280;33947;46.804;134.252;2022-10-16T05:30:28;100756.16;;;14.57;33.86
46846;BME280;33947;46.804;134.252;2022-10-16T05:33:32;100751.50;;;14.39;34.00
46846;BME280;33947;46.804;134.252;2022-10-16T05:36:37;100771.56;;;14.04;33.65
46846;BME280;33947;46.804;134.252;2022-10-16T05:39:41;100763.78;;;13.73;33.99
46846;BME280;33947;46.804;134.252;2022-10-16T05:42:45;100767.34;;;13.73;34.39
46846;BME280;33947;46.804;134.252;2022-10-16T05:46:08;100760.88;;;13.55;31.75
46846;BME280;33947;46.804;134.252;2022-10-16T05:49:13;100759.47;;;13.45;35.01
46846;BME280;33947;46.804;134.252;2022-10-16T05:52:17;100761.03;;;13.51;34.70
46846;BME280;33947;46.804;134.252;2022-10-16T05:55:21;100749.63;;;13.71;34.96
46846;BME280;33947;46.804;134.252;2022-10-16T05:58:33;100754.91;;;13.96;33.31
46846;BME280;33947;46.804;134.252;2022-10-16T06:01:37;100757.22;;;14.29;34.29
46846;BME280;33947;46.804;134.252;2022-10-16T06:04:42;100758.78;;;14.59;33.84
46846;BME280;33947;46.804;134.252;2022-10-16T06:07:46;100762.75;;;14.71;33.07
46846;BME280;33947;46.804;134.252;2022-10-16T06:11:02;100746.09;;;14.64;32.63
46846;BME280;33947;46.804;134.252;2022-10-16T06:14:08;100750.78;;;14.35;33.23
46846;BME280;33947;46.804;134.252;2022-10-16T06:17:14;100755.03;;;13.93;34.60
46846;BME280;33947;46.804;134.252;2022-10-16T06:20:19;100754.00;;;13.73;34.77
46846;BME280;33947;46.804;134.252;2022-10-16T06:23:24;100752.25;;;13.72;34.14
46846;BME280;33947;46.804;134.252;2022-10-16T06:26:30;100745.47;;;13.87;34.46
46846;BME280;33947;46.804;134.252;2022-10-16T06:29:35;100735.00;;;13.81;34.35
46846;BME280;33947;46.804;134.252;2022-10-16T06:32:39;100742.19;;;13.79;33.79
46846;BME280;33947;46.804;134.252;2022-10-16T06:35:44;100746.28;;;13.89;34.75
46846;BME280;33947;46.804;134.252;2022-10-16T06:38:48;100748.13;;;14.11;34.20
46846;BME280;33947;46.804;134.252;2022-10-16T06:41:53;100715.28;;;13.85;34.15
46846;BME280;33947;46.804;134.252;2022-10-16T06:45:01;100750.28;;;14.01;33.82
46846;BME280;33947;46.804;134.252;2022-10-16T06:48:05;100746.53;;;13.83;34.54
46846;BME280;33947;46.804;134.252;2022-10-16T06:51:19;100729.78;;;13.54;34.32
46846;BME280;33947;46.804;134.252;2022-10-16T06:54:24;100730.59;;;13.56;35.23
46846;BME280;33947;46.804;134.252;2022-10-16T06:57:29;100735.16;;;13.53;35.33
46846;BME280;33947;46.804;134.252;2022-10-16T07:00:34;100738.13;;;13.69;35.23
46846;BME280;33947;46.804;134.252;2022-10-16T07:03:41;100736.94;;;13.78;35.48
46846;BME280;33947;46.804;134.252;2022-10-16T07:06:45;100735.59;;;13.89;35.23
46846;BME280;33947;46.804;134.252;2022-10-16T07:09:50;100743.25;;;13.99;34.31
46846;BME280;33947;46.804;134.252;2022-10-16T07:12:54;100751.03;;;14.05;34.44
46846;BME280;33947;46.804;134.252;2022-10-16T07:16:07;100725.50;;;13.74;34.79
46846;BME280;33947;46.804;134.252;2022-10-16T07:19:12;100735.34;;;13.72;35.55
46846;BME280;33947;46.804;134.252;2022-10-16T07:22:18;100747.31;;;13.62;35.65
46846;BME280;33947;46.804;134.252;2022-10-16T07:25:23;100751.63;;;13.39;35.77
46846;BME280;33947;46.804;134.252;2022-10-16T07:28:28;100750.38;;;13.24;35.98
46846;BME280;33947;46.804;134.252;2022-10-16T07:31:33;100757.16;;;13.07;36.19
46846;BME280;33947;46.804;134.252;2022-10-16T07:34:37;100759.19;;;12.72;36.09
46846;BME280;33947;46.804;134.252;2022-10-16T07:37:45;100707.97;;;12.35;36.09
46846;BME280;33947;46.804;134.252;2022-10-16T07:40:58;100780.34;;;12.50;35.27
46846;BME280;33947;46.804;134.252;2022-10-16T07:44:03;100782.09;;;12.51;37.05
46846;BME280;33947;46.804;134.252;2022-10-16T07:47:08;100787.91;;;12.35;37.47
46846;BME280;33947;46.804;134.252;2022-10-16T07:50:12;100783.09;;;12.16;35.59
46846;BME280;33947;46.804;134.252;2022-10-16T07:53:16;100774.28;;;11.83;37.72
46846;BME280;33947;46.804;134.252;2022-10-16T07:56:25;100792.09;;;11.81;37.90
46846;BME280;33947;46.804;134.252;2022-10-16T07:59:30;100787.34;;;11.59;37.36
46846;BME280;33947;46.804;134.252;2022-10-16T08:02:36;100792.72;;;11.24;36.06
46846;BME280;33947;46.804;134.252;2022-10-16T08:05:40;100789.13;;;11.25;38.57
46846;BME280;33947;46.804;134.252;2022-10-16T08:08:45;100802.63;;;11.16;38.96
46846;BME280;33947;46.804;134.252;2022-10-16T08:11:49;100767.31;;;10.75;38.91
46846;BME280;33947;46.804;134.252;2022-10-16T08:14:55;100805.78;;;10.96;38.88
46846;BME280;33947;46.804;134.252;2022-10-16T08:18:02;100804.44;;;10.78;39.15
46846;BME280;33947;46.804;134.252;2022-10-16T08:21:13;100809.97;;;10.68;38.95
46846;BME280;33947;46.804;134.252;2022-10-16T08:24:23;100814.41;;;10.27;39.71
46846;BME280;33947;46.804;134.252;2022-10-16T08:27:32;100818.94;;;10.22;39.70
46846;BME280;33947;46.804;134.252;2022-10-16T08:30:36;100823.44;;;10.18;40.28
46846;BME280;33947;46.804;134.252;2022-10-16T08:33:43;100824.59;;;10.05;40.32
46846;BME280;33947;46.804;134.252;2022-10-16T08:36:49;100810.69;;;9.93;40.48
46846;BME280;33947;46.804;134.252;2022-10-16T08:39:53;100823.25;;;9.83;40.42
46846;BME280;33947;46.804;134.252;2022-10-16T08:46:56;100788.25;;;9.63;39.79
46846;BME280;33947;46.804;134.252;2022-10-16T08:49:59;100824.47;;;9.64;40.78
46846;BME280;33947;46.804;134.252;2022-10-16T08:53:05;100833.69;;;9.44;40.98
46846;BME280;33947;46.804;134.252;2022-10-16T08:56:10;100829.84;;;9.10;42.12
46846;BME280;33947;46.804;134.252;2022-10-16T08:59:16;100838.69;;;9.09;41.80
46846;BME280;33947;46.804;134.252;2022-10-16T09:02:26;100832.41;;;9.15;41.94
46846;BME280;33947;46.804;134.252;2022-10-16T09:12:17;100845.28;;;8.82;41.64
46846;BME280;33947;46.804;134.252;2022-10-16T09:15:35;100850.09;;;8.53;40.63
46846;BME280;33947;46.804;134.252;2022-10-16T09:22:17;100854.03;;;8.18;42.95
46846;BME280;33947;46.804;134.252;2022-10-16T09:25:22;100843.72;;;7.93;43.50
46846;BME280;33947;46.804;134.252;2022-10-16T09:28:26;100852.66;;;7.83;43.59
46846;BME280;33947;46.804;134.252;2022-10-16T09:31:31;100837.84;;;7.66;44.04
46846;BME280;33947;46.804;134.252;2022-10-16T09:34:42;100861.56;;;7.76;44.85
46846;BME280;33947;46.804;134.252;2022-10-16T09:37:52;100867.09;;;7.48;45.55
46846;BME280;33947;46.804;134.252;2022-10-16T09:44:26;100885.97;;;7.03;48.70
46846;BME280;33947;46.804;134.252;2022-10-16T09:47:43;100886.88;;;6.94;47.37
46846;BME280;33947;46.804;134.252;2022-10-16T09:51:00;100886.88;;;6.95;48.10
46846;BME280;33947;46.804;134.252;2022-10-16T09:57:15;100885.13;;;6.96;47.47
46846;BME280;33947;46.804;134.252;2022-10-16T10:00:21;100882.50;;;6.91;47.52
46846;BME280;33947;46.804;134.252;2022-10-16T10:03:38;100875.44;;;6.90;47.23
46846;BME280;33947;46.804;134.252;2022-10-16T10:06:48;100892.22;;;6.85;48.06
46846;BME280;33947;46.804;134.252;2022-10-16T10:09:56;100888.88;;;6.47;49.15
46846;BME280;33947;46.804;134.252;2022-10-16T10:13:01;100878.31;;;6.50;48.94
46846;BME280;33947;46.804;134.252;2022-10-16T10:16:05;100872.25;;;6.32;49.52
46846;BME280;33947;46.804;134.252;2022-10-16T10:22:39;100879.31;;;6.18;50.40
46846;BME280;33947;46.804;134.252;2022-10-16T10:26:02;100869.72;;;5.89;52.16
46846;BME280;33947;46.804;134.252;2022-10-16T10:46:03;100870.66;;;5.29;54.07
46846;BME280;33947;46.804;134.252;2022-10-16T10:55:48;100854.84;;;5.12;54.86
46846;BME280;33947;46.804;134.252;2022-10-16T10:58:59;100860.09;;;5.10;54.65
46846;BME280;33947;46.804;134.252;2022-10-16T11:05:35;100852.16;;;4.77;56.78
46846;BME280;33947;46.804;134.252;2022-10-16T11:08:52;100856.47;;;4.54;57.10
46846;BME280;33947;46.804;134.252;2022-10-16T11:12:26;100844.19;;;4.51;58.53
46846;BME280;33947;46.804;134.252;2022-10-16T11:15:35;100854.72;;;4.42;57.06
46846;BME280;33947;46.804;134.252;2022-10-16T11:19:11;100851.19;;;4.37;57.62
46846;BME280;33947;46.804;134.252;2022-10-16T11:22:22;100844.22;;;4.56;57.05
46846;BME280;33947;46.804;134.252;2022-10-16T11:25:33;100858.28;;;4.67;56.93
46846;BME280;33947;46.804;134.252;2022-10-16T11:28:45;100835.44;;;4.52;56.84
46846;BME280;33947;46.804;134.252;2022-10-16T11:31:58;100828.47;;;4.68;56.09
46846;BME280;33947;46.804;134.252;2022-10-16T11:35:13;100833.72;;;4.70;56.44
46846;BME280;33947;46.804;134.252;2022-10-16T11:38:39;100834.56;;;4.53;56.97
46846;BME280;33947;46.804;134.252;2022-10-16T11:45:02;100840.56;;;4.12;57.90
46846;BME280;33947;46.804;134.252;2022-10-16T11:51:44;100836.84;;;3.77;58.74
46846;BME280;33947;46.804;134.252;2022-10-16T11:58:07;100824.66;;;3.87;58.50
46846;BME280;33947;46.804;134.252;2022-10-16T12:04:52;100808.69;;;3.51;58.28
46846;BME280;33947;46.804;134.252;2022-10-16T12:11:23;100821.72;;;3.34;58.59
46846;BME280;33947;46.804;134.252;2022-10-16T12:14:35;100821.91;;;3.64;59.66
46846;BME280;33947;46.804;134.252;2022-10-16T12:18:00;100806.94;;;3.52;58.64
46846;BME280;33947;46.804;134.252;2022-10-16T12:21:05;100813.13;;;3.58;57.92
46846;BME280;33947;46.804;134.252;2022-10-16T12:27:36;100803.59;;;3.81;57.63
46846;BME280;33947;46.804;134.252;2022-10-16T12:30:43;100814.09;;;3.78;57.97
46846;BME280;33947;46.804;134.252;2022-10-16T12:34:03;100791.09;;;3.41;59.56
46846;BME280;33947;46.804;134.252;2022-10-16T12:37:31;100813.09;;;3.55;58.71
46846;BME280;33947;46.804;134.252;2022-10-16T12:40:37;100808.69;;;3.53;58.56
46846;BME280;33947;46.804;134.252;2022-10-16T12:43:45;100791.97;;;3.40;59.47
46846;BME280;33947;46.804;134.252;2022-10-16T12:46:50;100788.34;;;3.21;60.46
46846;BME280;33947;46.804;134.252;2022-10-16T12:49:55;100789.31;;;3.35;59.52
46846;BME280;33947;46.804;134.252;2022-10-16T12:53:00;100803.31;;;3.36;59.98
46846;BME280;33947;46.804;134.252;2022-10-16T12:56:09;100798.66;;;2.96;62.58
46846;BME280;33947;46.804;134.252;2022-10-16T12:59:28;100790.09;;;3.20;59.98
46846;BME280;33947;46.804;134.252;2022-10-16T13:09:34;100795.91;;;2.83;61.07
46846;BME280;33947;46.804;134.252;2022-10-16T13:26:31;100790.75;;;2.89;59.79
46846;BME280;33947;46.804;134.252;2022-10-16T13:29:41;100779.88;;;2.49;60.63
46846;BME280;33947;46.804;134.252;2022-10-16T13:32:48;100778.81;;;2.31;61.85
46846;BME280;33947;46.804;134.252;2022-10-16T13:35:56;100791.03;;;2.33;62.02
46846;BME280;33947;46.804;134.252;2022-10-16T13:39:19;100780.47;;;2.23;62.55
46846;BME280;33947;46.804;134.252;2022-10-16T13:42:27;100751.28;;;1.91;62.70
46846;BME280;33947;46.804;134.252;2022-10-16T13:45:32;100772.38;;;2.05;62.54
46846;BME280;33947;46.804;134.252;2022-10-16T13:48:36;100769.81;;;2.09;62.65
46846;BME280;33947;46.804;134.252;2022-10-16T13:51:41;100769.66;;;1.94;62.97
46846;BME280;33947;46.804;134.252;2022-10-16T13:54:46;100767.03;;;1.95;63.23
46846;BME280;33947;46.804;134.252;2022-10-16T13:57:52;100754.63;;;1.80;62.95
46846;BME280;33947;46.804;134.252;2022-10-16T14:04:21;100732.38;;;1.46;63.65
46846;BME280;33947;46.804;134.252;2022-10-16T14:07:31;100752.50;;;1.50;63.99
46846;BME280;33947;46.804;134.252;2022-10-16T14:10:38;100757.94;;;1.67;63.50
46846;BME280;33947;46.804;134.252;2022-10-16T14:13:46;100761.25;;;1.52;63.37
46846;BME280;33947;46.804;134.252;2022-10-16T14:16:51;100764.06;;;1.66;63.69
46846;BME280;33947;46.804;134.252;2022-10-16T14:19:58;100752.72;;;1.68;63.41
46846;BME280;33947;46.804;134.252;2022-10-16T14:26:24;100756.13;;;1.59;63.28
46846;BME280;33947;46.804;134.252;2022-10-16T14:29:30;100726.34;;;1.53;62.95
46846;BME280;33947;46.804;134.252;2022-10-16T14:32:35;100750.91;;;1.63;63.29
46846;BME280;33947;46.804;134.252;2022-10-16T14:35:40;100731.72;;;1.65;62.83
46846;BME280;33947;46.804;134.252;2022-10-16T14:39:06;100729.66;;;1.39;63.83
46846;BME280;33947;46.804;134.252;2022-10-16T14:42:20;100734.88;;;1.36;63.28
46846;BME280;33947;46.804;134.252;2022-10-16T14:45:30;100728.81;;;1.40;63.61
46846;BME280;33947;46.804;134.252;2022-10-16T14:48:35;100701.00;;;1.50;62.14
46846;BME280;33947;46.804;134.252;2022-10-16T14:51:41;100712.50;;;1.62;62.43
46846;BME280;33947;46.804;134.252;2022-10-16T14:54:49;100712.47;;;1.60;62.18
46846;BME280;33947;46.804;134.252;2022-10-16T14:57:53;100701.59;;;1.29;62.96
46846;BME280;33947;46.804;134.252;2022-10-16T15:01:03;100701.50;;;1.23;63.54
46846;BME280;33947;46.804;134.252;2022-10-16T15:04:12;100718.66;;;1.02;65.23
46846;BME280;33947;46.804;134.252;2022-10-16T15:07:17;100710.78;;;1.00;65.57
46846;BME280;33947;46.804;134.252;2022-10-16T15:10:23;100655.06;;;0.49;65.84
46846;BME280;33947;46.804;134.252;2022-10-16T15:13:29;100705.50;;;0.97;65.79
46846;BME280;33947;46.804;134.252;2022-10-16T15:16:33;100692.44;;;0.97;64.94
46846;BME280;33947;46.804;134.252;2022-10-16T15:19:38;100695.50;;;1.30;64.56
46846;BME280;33947;46.804;134.252;2022-10-16T15:22:42;100676.41;;;1.37;63.36
46846;BME280;33947;46.804;134.252;2022-10-16T15:25:48;100686.53;;;1.12;63.57
46846;BME280;33947;46.804;134.252;2022-10-16T15:28:53;100665.94;;;0.74;64.71
46846;BME280;33947;46.804;134.252;2022-10-16T15:31:58;100679.72;;;0.65;65.63
46846;BME280;33947;46.804;134.252;2022-10-16T15:35:03;100699.13;;;0.78;65.29
46846;BME280;33947;46.804;134.252;2022-10-16T15:38:11;100685.00;;;0.67;65.49
46846;BME280;33947;46.804;134.252;2022-10-16T15:41:16;100657.69;;;0.49;65.03
46846;BME280;33947;46.804;134.252;2022-10-16T15:44:21;100697.34;;;0.77;64.48
46846;BME280;33947;46.804;134.252;2022-10-16T15:47:33;100668.41;;;0.65;64.49
46846;BME280;33947;46.804;134.252;2022-10-16T15:50:38;100642.81;;;0.45;65.07
46846;BME280;33947;46.804;134.252;2022-10-16T15:53:43;100657.00;;;0.60;64.76
46846;BME280;33947;46.804;134.252;2022-10-16T15:56:50;100672.06;;;0.76;64.87
46846;BME280;33947;46.804;134.252;2022-10-16T15:59:55;100686.03;;;0.78;64.75
46846;BME280;33947;46.804;134.252;2022-10-16T16:03:00;100673.72;;;0.71;63.45
46846;BME280;33947;46.804;134.252;2022-10-16T16:06:09;100649.22;;;0.12;65.80
46846;BME280;33947;46.804;134.252;2022-10-16T16:09:14;100691.75;;;0.54;65.53
46846;BME280;33947;46.804;134.252;2022-10-16T16:12:19;100639.91;;;0.28;65.63
46846;BME280;33947;46.804;134.252;2022-10-16T16:15:23;100679.94;;;0.78;64.16
46846;BME280;33947;46.804;134.252;2022-10-16T16:18:28;100655.28;;;0.62;63.54
46846;BME280;33947;46.804;134.252;2022-10-16T16:21:33;100671.06;;;0.68;64.13
46846;BME280;33947;46.804;134.252;2022-10-16T16:24:38;100664.81;;;0.58;64.61
46846;BME280;33947;46.804;134.252;2022-10-16T16:27:44;100654.44;;;0.63;64.31
46846;BME280;33947;46.804;134.252;2022-10-16T16:30:51;100655.69;;;0.34;65.68
46846;BME280;33947;46.804;134.252;2022-10-16T16:33:56;100652.28;;;0.37;65.81
46846;BME280;33947;46.804;134.252;2022-10-16T16:37:01;100652.34;;;0.41;66.38
46846;BME280;33947;46.804;134.252;2022-10-16T16:40:06;100639.00;;;0.24;66.63
46846;BME280;33947;46.804;134.252;2022-10-16T16:43:11;100632.94;;;0.27;66.22
46846;BME280;33947;46.804;134.252;2022-10-16T16:46:15;100640.66;;;0.19;66.59
46846;BME280;33947;46.804;134.252;2022-10-16T16:49:19;100631.16;;;0.24;66.51
46846;BME280;33947;46.804;134.252;2022-10-16T16:52:25;100627.28;;;0.01;67.00
46846;BME280;33947;46.804;134.252;2022-10-16T16:55:29;100630.53;;;-0.13;67.73
46846;BME280;33947;46.804;134.252;2022-10-16T16:58:35;100623.44;;;-0.19;67.89
46846;BME280;33947;46.804;134.252;2022-10-16T17:01:39;100607.13;;;-0.05;67.59
46846;BME280;33947;46.804;134.252;2022-10-16T17:04:45;100599.53;;;0.07;67.38
46846;BME280;33947;46.804;134.252;2022-10-16T17:07:49;100614.78;;;0.35;65.65
46846;BME280;33947;46.804;134.252;2022-10-16T17:10:54;100608.66;;;0.34;65.23
46846;BME280;33947;46.804;134.252;2022-10-16T17:13:59;100612.25;;;-0.13;67.46
46846;BME280;33947;46.804;134.252;2022-10-16T17:17:04;100603.50;;;-0.15;67.98
46846;BME280;33947;46.804;134.252;2022-10-16T17:20:10;100616.63;;;-0.12;67.72
46846;BME280;33947;46.804;134.252;2022-10-16T17:23:16;100594.53;;;-0.31;67.56
46846;BME280;33947;46.804;134.252;2022-10-16T17:26:21;100602.28;;;-0.34;68.22
46846;BME280;33947;46.804;134.252;2022-10-16T17:29:25;100602.94;;;-0.46;69.23
46846;BME280;33947;46.804;134.252;2022-10-16T17:32:30;100604.06;;;-0.32;68.98
46846;BME280;33947;46.804;134.252;2022-10-16T17:35:41;100600.81;;;-0.20;68.32
46846;BME280;33947;46.804;134.252;2022-10-16T17:38:46;100578.22;;;-0.18;67.62
46846;BME280;33947;46.804;134.252;2022-10-16T17:41:51;100589.72;;;-0.08;67.04
46846;BME280;33947;46.804;134.252;2022-10-16T17:44:56;100587.16;;;-0.05;66.98
46846;BME280;33947;46.804;134.252;2022-10-16T17:48:00;100593.41;;;0.05;66.58
46846;BME280;33947;46.804;134.252;2022-10-16T17:51:06;100586.50;;;0.09;66.23
46846;BME280;33947;46.804;134.252;2022-10-16T17:54:11;100588.75;;;-0.13;66.60